createdAt,value
2019-03-22T00:04:42.750Z,102748.12
2019-03-22T00:09:36.729Z,102750.58
2019-03-22T00:14:30.831Z,102746.38
2019-03-22T00:19:24.822Z,102747.85
2019-03-22T00:24:18.774Z,102742.80
2019-03-22T00:29:13.049Z,102744.20
2019-03-22T00:34:07.145Z,102735.18
2019-03-22T00:39:01.124Z,102745.52
2019-03-22T00:43:55.325Z,102743.98
2019-03-22T00:48:49.410Z,102734.97
2019-03-22T00:53:43.448Z,102733.33
2019-03-22T00:58:37.431Z,102730.80
2019-03-22T01:03:31.432Z,102730.05
2019-03-22T01:08:25.428Z,102729.23
2019-03-22T01:13:19.397Z,102731.09
2019-03-22T01:18:13.370Z,102734.81
2019-03-22T01:23:07.350Z,102730.09
2019-03-22T01:28:01.344Z,102737.81
2019-03-22T01:32:55.502Z,102728.28
2019-03-22T01:37:49.494Z,102725.36
2019-03-22T01:42:43.574Z,102728.61
2019-03-22T01:47:37.531Z,102727.50
2019-03-22T01:52:31.518Z,102733.34
2019-03-22T01:57:25.622Z,102735.13
2019-03-22T02:02:19.603Z,102741.97
2019-03-22T02:07:13.656Z,102733.96
2019-03-22T02:12:07.649Z,102725.33
2019-03-22T02:17:01.768Z,102727.67
2019-03-22T02:21:55.737Z,102720.75
2019-03-22T02:26:49.688Z,102722.13
2019-03-22T02:31:43.679Z,102719.95
2019-03-22T02:36:37.652Z,102729.52
2019-03-22T02:41:31.627Z,102713.42
2019-03-22T02:46:25.615Z,102707.00
2019-03-22T02:51:19.585Z,102713.63
2019-03-22T02:56:13.719Z,102704.00
2019-03-22T03:01:07.931Z,102701.83
2019-03-22T03:06:01.907Z,102703.44
2019-03-22T03:10:55.970Z,102699.95
2019-03-22T03:15:49.942Z,102693.91
2019-03-22T03:20:43.942Z,102688.41
2019-03-22T03:25:37.902Z,102689.46
2019-03-22T03:30:31.863Z,102687.68
2019-03-22T03:35:25.828Z,102686.47
2019-03-22T03:40:19.991Z,102685.27
2019-03-22T03:45:31.779Z,102689.82
2019-03-22T03:50:25.731Z,102691.76
2019-03-22T03:55:19.696Z,102687.53
2019-03-22T04:00:14.045Z,102681.53
2019-03-22T04:05:08.093Z,102678.90
2019-03-22T04:10:04.505Z,102679.82
2019-03-22T04:14:58.478Z,102687.94
2019-03-22T04:19:52.469Z,102702.92
2019-03-22T04:24:46.428Z,102698.73
2019-03-22T04:29:40.389Z,102706.70
2019-03-22T04:34:34.366Z,102702.89
2019-03-22T04:39:28.376Z,102702.89
2019-03-22T04:44:22.405Z,102695.05
2019-03-22T04:49:16.769Z,102692.05
2019-03-22T04:54:11.020Z,102691.19
2019-03-22T04:59:18.518Z,102702.50
2019-03-22T05:04:04.373Z,102691.19
2019-03-22T05:08:59.038Z,102678.97
2019-03-22T05:13:55.002Z,102683.34
2019-03-22T05:18:49.773Z,102689.32
2019-03-22T05:23:44.932Z,102695.54
2019-03-22T05:28:38.998Z,102696.37
2019-03-22T05:33:32.963Z,102684.79
2019-03-22T05:38:26.958Z,102675.94
2019-03-22T05:43:20.981Z,102681.17
2019-03-22T05:48:15.029Z,102682.45
2019-03-22T05:53:09.006Z,102683.13
2019-03-22T05:58:03.086Z,102691.17
2019-03-22T06:02:57.078Z,102703.77
2019-03-22T06:07:51.038Z,102691.20
2019-03-22T06:12:45.006Z,102692.62
2019-03-22T06:17:38.974Z,102691.33
2019-03-22T06:22:32.993Z,102692.20
2019-03-22T06:27:26.973Z,102700.14
2019-03-22T06:32:20.943Z,102697.38
2019-03-22T06:37:15.048Z,102715.17
2019-03-22T06:42:09.056Z,102715.39
2019-03-22T06:47:03.113Z,102715.13
2019-03-22T06:51:57.069Z,102714.42
2019-03-22T06:56:51.056Z,102711.26
2019-03-22T07:01:45.035Z,102719.04
2019-03-22T07:06:39.036Z,102743.34
2019-03-22T07:11:33.083Z,102741.70
2019-03-22T07:16:27.049Z,102741.69
2019-03-22T07:21:21.026Z,102746.60
2019-03-22T07:26:15.119Z,102744.98
2019-03-22T07:31:09.078Z,102736.53
2019-03-22T07:36:03.138Z,102732.44
2019-03-22T07:40:57.145Z,102732.91
2019-03-22T07:45:51.289Z,102738.53
2019-03-22T07:50:45.282Z,102740.05
2019-03-22T07:55:39.342Z,102734.84
2019-03-22T08:00:33.436Z,102738.97
2019-03-22T08:05:27.415Z,102734.59
2019-03-22T08:10:21.514Z,102733.73
2019-03-22T08:15:19.510Z,102738.70
2019-03-22T08:20:13.539Z,102744.66
2019-03-22T08:25:07.699Z,102743.88
2019-03-22T08:30:02.518Z,102733.22
2019-03-22T08:34:56.491Z,102735.45
2019-03-22T08:39:50.512Z,102734.27
2019-03-22T08:44:44.608Z,102732.19
2019-03-22T08:49:38.730Z,102730.63
2019-03-22T08:54:32.777Z,102720.20
2019-03-22T08:59:26.725Z,102726.41
2019-03-22T09:04:20.740Z,102723.27
2019-03-22T09:09:14.691Z,102713.22
2019-03-22T09:14:08.666Z,102702.24
2019-03-22T09:19:02.709Z,102699.32
2019-03-22T09:23:56.778Z,102686.99
2019-03-22T09:28:50.874Z,102687.34
2019-03-22T09:33:44.816Z,102683.25
2019-03-22T09:38:38.771Z,102669.59
2019-03-22T09:43:32.808Z,102675.00
2019-03-22T09:48:26.745Z,102667.39
2019-03-22T09:53:20.818Z,102669.60
2019-03-22T09:58:14.851Z,102661.71
2019-03-22T10:03:08.960Z,102645.81
2019-03-22T10:08:03.027Z,102642.77
2019-03-22T10:12:57.036Z,102630.74
2019-03-22T10:17:51.029Z,102628.49
2019-03-22T10:22:44.996Z,102624.87
2019-03-22T10:27:39.111Z,102619.30
2019-03-22T10:32:33.151Z,102608.94
2019-03-22T10:37:27.308Z,102599.92
2019-03-22T10:42:21.319Z,102595.03
2019-03-22T10:47:17.973Z,102582.41
2019-03-22T10:52:11.142Z,102577.52
2019-03-22T10:57:05.151Z,102577.41
2019-03-22T11:02:03.777Z,102565.34
2019-03-22T11:06:55.087Z,102560.19
2019-03-22T11:11:49.161Z,102546.66
2019-03-22T11:16:43.145Z,102540.24
2019-03-22T11:21:37.335Z,102538.33
2019-03-22T11:26:31.337Z,102528.05
2019-03-22T11:31:28.586Z,102517.34
2019-03-22T11:36:21.481Z,102508.23
2019-03-22T11:41:15.597Z,102506.20
2019-03-22T11:46:09.571Z,102495.53
2019-03-22T11:51:03.956Z,102487.87
2019-03-22T11:55:57.903Z,102473.43
2019-03-22T12:00:51.983Z,102465.05
2019-03-22T12:05:46.078Z,102460.84
2019-03-22T12:10:40.211Z,102447.87
2019-03-22T12:15:34.185Z,102432.09
2019-03-22T12:20:28.165Z,102435.16
2019-03-22T12:25:24.150Z,102423.86
2019-03-22T12:30:18.361Z,102411.91
2019-03-22T12:35:14.470Z,102403.25
2019-03-22T12:40:14.357Z,102397.02
2019-03-22T12:45:11.553Z,102379.75
2019-03-22T12:50:06.445Z,102366.84
2019-03-22T12:55:00.494Z,102362.59
2019-03-22T12:59:54.477Z,102347.12
2019-03-22T13:04:48.477Z,102340.61
2019-03-22T13:09:42.469Z,102337.52
2019-03-22T13:14:36.552Z,102320.83
2019-03-22T13:19:30.576Z,102312.03
2019-03-22T13:24:24.876Z,102314.71
2019-03-22T13:29:18.876Z,102304.27
2019-03-22T13:34:13.185Z,102297.34
2019-03-22T13:39:07.271Z,102294.64
2019-03-22T13:44:01.319Z,102283.36
2019-03-22T13:48:55.325Z,102279.50
2019-03-22T13:53:49.270Z,102275.61
2019-03-22T13:58:43.490Z,102269.00
2019-03-22T14:03:37.463Z,102257.00
2019-03-22T14:08:31.425Z,102248.24
2019-03-22T14:13:25.409Z,102245.20
2019-03-22T14:18:19.406Z,102238.07
2019-03-22T14:23:13.536Z,102234.68
2019-03-22T14:28:07.517Z,102225.59
2019-03-22T14:33:01.522Z,102221.75
2019-03-22T14:37:55.656Z,102223.69
2019-03-22T14:42:49.779Z,102210.77
2019-03-22T14:47:43.919Z,102202.41
2019-03-22T14:52:38.025Z,102192.78
2019-03-22T14:57:31.999Z,102186.58
2019-03-22T15:02:26.023Z,102185.85
2019-03-22T15:07:20.268Z,102179.83
2019-03-22T15:12:14.480Z,102170.88
2019-03-22T15:17:13.091Z,102167.16
2019-03-22T15:22:09.084Z,102160.72
2019-03-22T15:27:21.698Z,102162.67
2019-03-22T15:32:20.503Z,102157.75
2019-03-22T15:37:28.591Z,102147.81
2019-03-22T15:42:23.150Z,102137.63
2019-03-22T15:47:17.475Z,102137.27
2019-03-22T15:52:11.477Z,102131.23
2019-03-22T15:57:05.572Z,102128.08
2019-03-22T16:01:59.798Z,102129.64
2019-03-22T16:06:53.773Z,102126.52
2019-03-22T16:11:48.255Z,102127.73
2019-03-22T16:16:42.260Z,102114.90
2019-03-22T16:21:36.369Z,102113.10
2019-03-22T16:26:30.492Z,102116.58
2019-03-22T16:31:24.490Z,102114.47
2019-03-22T16:36:18.560Z,102110.85
2019-03-22T16:41:12.691Z,102108.73
2019-03-22T16:46:06.759Z,102106.77
2019-03-22T16:51:00.848Z,102104.33
2019-03-22T16:55:54.911Z,102105.29
2019-03-22T17:00:50.031Z,102101.29
2019-03-22T17:05:44.265Z,102106.80
2019-03-22T17:10:38.338Z,102108.27
2019-03-22T17:15:32.419Z,102119.40
2019-03-22T17:20:26.512Z,102120.09
2019-03-22T17:25:20.497Z,102117.70
2019-03-22T17:30:14.889Z,102122.25
2019-03-22T17:35:08.973Z,102119.37
2019-03-22T17:40:06.518Z,102128.47
2019-03-22T17:45:00.609Z,102127.02
2019-03-22T17:49:54.600Z,102126.41
2019-03-22T17:54:48.599Z,102126.94
2019-03-22T17:59:42.609Z,102131.91
2019-03-22T18:04:36.610Z,102135.41
2019-03-22T18:09:30.604Z,102133.16
2019-03-22T18:14:24.586Z,102140.76
2019-03-22T18:19:18.538Z,102143.48
2019-03-22T18:24:12.520Z,102147.29
2019-03-22T18:29:06.503Z,102155.27
2019-03-22T18:34:00.585Z,102156.42
2019-03-22T18:38:54.633Z,102162.69
2019-03-22T18:43:48.722Z,102165.06
2019-03-22T18:48:42.700Z,102174.46
2019-03-22T18:53:36.701Z,102173.85
2019-03-22T18:58:30.691Z,102180.66
2019-03-22T19:03:24.806Z,102197.61
2019-03-22T19:08:19.086Z,102193.36
2019-03-22T19:13:13.084Z,102190.07
2019-03-22T19:18:07.072Z,102187.87
2019-03-22T19:23:01.390Z,102189.35
2019-03-22T19:27:55.369Z,102190.66
2019-03-22T19:32:49.808Z,102177.27
2019-03-22T19:37:43.916Z,102181.03
2019-03-22T19:42:38.166Z,102182.47
2019-03-22T19:47:32.115Z,102177.95
2019-03-22T19:52:26.242Z,102184.97
2019-03-22T19:57:20.191Z,102186.55
2019-03-22T20:02:14.225Z,102187.29
2019-03-22T20:07:08.257Z,102189.46
2019-03-22T20:12:04.425Z,102189.87
2019-03-22T20:16:58.373Z,102198.11
2019-03-22T20:21:52.489Z,102203.55
2019-03-22T20:26:46.465Z,102203.91
2019-03-22T20:31:40.720Z,102204.76
2019-03-22T20:36:34.876Z,102204.42
2019-03-22T20:41:29.046Z,102200.95
2019-03-22T20:46:23.154Z,102195.19
2019-03-22T20:51:17.260Z,102187.38
2019-03-22T20:56:11.280Z,102193.17
2019-03-22T21:01:05.379Z,102193.08
2019-03-22T21:05:59.351Z,102185.98
2019-03-22T21:10:53.497Z,102183.99
2019-03-22T21:15:47.476Z,102186.98
2019-03-22T21:20:41.466Z,102195.31
2019-03-22T21:25:35.448Z,102186.81
2019-03-22T21:30:29.458Z,102182.91
2019-03-22T21:35:23.539Z,102183.22
2019-03-22T21:40:17.524Z,102183.50
2019-03-22T21:45:12.275Z,102188.58
2019-03-22T21:50:08.800Z,102184.59
2019-03-22T21:55:04.599Z,102195.32
2019-03-22T21:59:58.568Z,102189.72
2019-03-22T22:04:52.746Z,102197.80
2019-03-22T22:09:46.755Z,102199.31
2019-03-22T22:14:41.301Z,102202.01
2019-03-22T22:19:35.457Z,102204.44
2019-03-22T22:24:29.456Z,102215.50
2019-03-22T22:29:23.424Z,102207.11
2019-03-22T22:34:17.405Z,102212.34
2019-03-22T22:39:11.469Z,102207.65
2019-03-22T22:44:05.583Z,102208.42
2019-03-22T22:48:59.675Z,102209.86
2019-03-22T22:53:53.677Z,102208.59
2019-03-22T22:58:48.007Z,102212.89
2019-03-22T23:03:41.968Z,102225.93
2019-03-22T23:08:36.373Z,102214.33
2019-03-22T23:13:30.455Z,102229.27
2019-03-22T23:18:24.450Z,102225.56
2019-03-22T23:23:18.490Z,102234.03
2019-03-22T23:28:12.464Z,102238.58
2019-03-22T23:33:06.448Z,102239.23
2019-03-22T23:38:00.419Z,102246.72
2019-03-22T23:42:54.427Z,102243.08
2019-03-22T23:47:48.504Z,102234.34
2019-03-22T23:52:42.519Z,102237.82
2019-03-22T23:57:36.494Z,102244.62
